sensor_id;sensor_type;location;lat;lon;timestamp;P1;durP1;ratioP1;P2;durP2;ratioP2
62123;SDS011;48110;47.532;19.078;2023-06-14T00:00:13;6.75;;;4.90;;
62123;SDS011;48110;47.532;19.078;2023-06-14T00:03:21;6.53;;;4.95;;
62123;SDS011;48110;47.532;19.078;2023-06-14T00:06:31;7.00;;;4.90;;
62123;SDS011;48110;47.532;19.078;2023-06-14T00:09:41;8.15;;;5.30;;
62123;SDS011;48110;47.532;19.078;2023-06-14T00:12:49;6.97;;;5.32;;
62123;SDS011;48110;47.532;19.078;2023-06-14T00:15:57;7.28;;;5.50;;
62123;SDS011;48110;47.532;19.078;2023-06-14T00:19:04;9.48;;;6.07;;
62123;SDS011;48110;47.532;19.078;2023-06-14T00:22:11;8.27;;;6.07;;
62123;SDS011;48110;47.532;19.078;2023-06-14T00:25:18;7.47;;;6.07;;
62123;SDS011;48110;47.532;19.078;2023-06-14T00:28:34;9.63;;;6.10;;
62123;SDS011;48110;47.532;19.078;2023-06-14T00:31:42;12.63;;;6.15;;
62123;SDS011;48110;47.532;19.078;2023-06-14T00:34:49;8.25;;;6.28;;
62123;SDS011;48110;47.532;19.078;2023-06-14T00:37:55;10.05;;;6.22;;
62123;SDS011;48110;47.532;19.078;2023-06-14T00:41:01;11.57;;;6.37;;
62123;SDS011;48110;47.532;19.078;2023-06-14T00:44:07;9.57;;;6.20;;
62123;SDS011;48110;47.532;19.078;2023-06-14T00:47:13;8.63;;;6.30;;
62123;SDS011;48110;47.532;19.078;2023-06-14T00:50:21;10.15;;;6.62;;
62123;SDS011;48110;47.532;19.078;2023-06-14T00:53:30;9.20;;;6.50;;
62123;SDS011;48110;47.532;19.078;2023-06-14T00:56:40;8.30;;;6.40;;
62123;SDS011;48110;47.532;19.078;2023-06-14T01:02:54;10.05;;;8.10;;
62123;SDS011;48110;47.532;19.078;2023-06-14T01:09:27;10.85;;;8.45;;
62123;SDS011;48110;47.532;19.078;2023-06-14T01:12:47;11.65;;;8.40;;
62123;SDS011;48110;47.532;19.078;2023-06-14T01:15:58;12.80;;;8.75;;
62123;SDS011;48110;47.532;19.078;2023-06-14T01:19:07;8.68;;;5.82;;
62123;SDS011;48110;47.532;19.078;2023-06-14T01:22:19;10.85;;;5.80;;
62123;SDS011;48110;47.532;19.078;2023-06-14T01:25:30;7.70;;;5.25;;
62123;SDS011;48110;47.532;19.078;2023-06-14T01:28:38;10.70;;;5.90;;
62123;SDS011;48110;47.532;19.078;2023-06-14T01:31:44;7.47;;;5.53;;
62123;SDS011;48110;47.532;19.078;2023-06-14T01:34:53;7.78;;;5.55;;
62123;SDS011;48110;47.532;19.078;2023-06-14T01:38:01;9.15;;;5.55;;
62123;SDS011;48110;47.532;19.078;2023-06-14T01:41:08;7.93;;;5.50;;
62123;SDS011;48110;47.532;19.078;2023-06-14T01:44:16;6.72;;;5.47;;
62123;SDS011;48110;47.532;19.078;2023-06-14T01:47:26;8.65;;;5.45;;
62123;SDS011;48110;47.532;19.078;2023-06-14T01:50:35;9.05;;;5.97;;
62123;SDS011;48110;47.532;19.078;2023-06-14T01:53:41;11.75;;;5.72;;
62123;SDS011;48110;47.532;19.078;2023-06-14T01:56:48;9.82;;;5.37;;
62123;SDS011;48110;47.532;19.078;2023-06-14T01:59:54;9.07;;;5.62;;
62123;SDS011;48110;47.532;19.078;2023-06-14T02:03:01;7.60;;;5.47;;
62123;SDS011;48110;47.532;19.078;2023-06-14T02:06:09;11.77;;;5.85;;
62123;SDS011;48110;47.532;19.078;2023-06-14T02:09:16;8.32;;;5.97;;
62123;SDS011;48110;47.532;19.078;2023-06-14T02:12:24;11.52;;;6.10;;
62123;SDS011;48110;47.532;19.078;2023-06-14T02:15:32;8.10;;;5.72;;
62123;SDS011;48110;47.532;19.078;2023-06-14T02:18:44;8.25;;;5.93;;
62123;SDS011;48110;47.532;19.078;2023-06-14T02:21:52;9.35;;;6.18;;
62123;SDS011;48110;47.532;19.078;2023-06-14T02:24:58;8.93;;;6.55;;
62123;SDS011;48110;47.532;19.078;2023-06-14T02:28:07;10.13;;;7.22;;
62123;SDS011;48110;47.532;19.078;2023-06-14T02:31:11;10.27;;;6.57;;
62123;SDS011;48110;47.532;19.078;2023-06-14T02:34:19;10.85;;;6.97;;
62123;SDS011;48110;47.532;19.078;2023-06-14T02:37:26;10.80;;;6.87;;
62123;SDS011;48110;47.532;19.078;2023-06-14T02:40:32;9.65;;;6.47;;
62123;SDS011;48110;47.532;19.078;2023-06-14T02:43:41;10.10;;;6.50;;
62123;SDS011;48110;47.532;19.078;2023-06-14T02:46:50;11.75;;;7.43;;
62123;SDS011;48110;47.532;19.078;2023-06-14T02:49:55;11.68;;;7.47;;
62123;SDS011;48110;47.532;19.078;2023-06-14T02:53:05;12.48;;;7.60;;
62123;SDS011;48110;47.532;19.078;2023-06-14T02:56:12;11.75;;;8.52;;
62123;SDS011;48110;47.532;19.078;2023-06-14T02:59:19;12.20;;;8.65;;
62123;SDS011;48110;47.532;19.078;2023-06-14T03:02:29;11.48;;;7.82;;
62123;SDS011;48110;47.532;19.078;2023-06-14T03:05:36;11.68;;;7.68;;
62123;SDS011;48110;47.532;19.078;2023-06-14T03:08:47;12.88;;;8.27;;
62123;SDS011;48110;47.532;19.078;2023-06-14T03:11:54;13.82;;;8.10;;
62123;SDS011;48110;47.532;19.078;2023-06-14T03:15:03;12.53;;;7.90;;
62123;SDS011;48110;47.532;19.078;2023-06-14T03:18:12;12.02;;;8.48;;
62123;SDS011;48110;47.532;19.078;2023-06-14T03:21:19;15.35;;;8.35;;
62123;SDS011;48110;47.532;19.078;2023-06-14T03:24:28;11.93;;;8.00;;
62123;SDS011;48110;47.532;19.078;2023-06-14T03:27:37;12.70;;;8.82;;
62123;SDS011;48110;47.532;19.078;2023-06-14T03:30:44;12.05;;;8.43;;
62123;SDS011;48110;47.532;19.078;2023-06-14T03:33:51;11.05;;;8.10;;
62123;SDS011;48110;47.532;19.078;2023-06-14T03:36:57;14.63;;;8.20;;
62123;SDS011;48110;47.532;19.078;2023-06-14T03:40:04;14.73;;;8.15;;
62123;SDS011;48110;47.532;19.078;2023-06-14T03:43:13;10.50;;;7.90;;
62123;SDS011;48110;47.532;19.078;2023-06-14T03:46:21;13.75;;;8.13;;
62123;SDS011;48110;47.532;19.078;2023-06-14T03:49:30;12.00;;;8.18;;
62123;SDS011;48110;47.532;19.078;2023-06-14T03:52:36;11.20;;;7.95;;
62123;SDS011;48110;47.532;19.078;2023-06-14T03:55:44;17.95;;;8.73;;
62123;SDS011;48110;47.532;19.078;2023-06-14T03:58:57;12.30;;;8.27;;
62123;SDS011;48110;47.532;19.078;2023-06-14T04:02:04;12.70;;;8.95;;
62123;SDS011;48110;47.532;19.078;2023-06-14T04:05:13;12.75;;;9.15;;
62123;SDS011;48110;47.532;19.078;2023-06-14T04:08:19;13.30;;;8.73;;
62123;SDS011;48110;47.532;19.078;2023-06-14T04:11:28;12.30;;;8.77;;
62123;SDS011;48110;47.532;19.078;2023-06-14T04:14:34;12.20;;;8.27;;
62123;SDS011;48110;47.532;19.078;2023-06-14T04:17:41;18.17;;;9.05;;
62123;SDS011;48110;47.532;19.078;2023-06-14T04:20:47;15.20;;;9.48;;
62123;SDS011;48110;47.532;19.078;2023-06-14T04:23:52;16.23;;;9.45;;
62123;SDS011;48110;47.532;19.078;2023-06-14T04:26:58;12.90;;;9.18;;
62123;SDS011;48110;47.532;19.078;2023-06-14T04:30:03;12.25;;;9.27;;
62123;SDS011;48110;47.532;19.078;2023-06-14T04:33:10;16.25;;;9.70;;
62123;SDS011;48110;47.532;19.078;2023-06-14T04:36:16;13.20;;;9.30;;
62123;SDS011;48110;47.532;19.078;2023-06-14T04:39:21;11.85;;;9.00;;
62123;SDS011;48110;47.532;19.078;2023-06-14T04:42:28;13.98;;;9.23;;
62123;SDS011;48110;47.532;19.078;2023-06-14T04:45:35;13.85;;;9.27;;
62123;SDS011;48110;47.532;19.078;2023-06-14T04:48:44;14.10;;;9.82;;
62123;SDS011;48110;47.532;19.078;2023-06-14T04:51:49;13.05;;;9.75;;
62123;SDS011;48110;47.532;19.078;2023-06-14T04:55:00;16.10;;;9.48;;
62123;SDS011;48110;47.532;19.078;2023-06-14T04:58:04;14.85;;;10.30;;
62123;SDS011;48110;47.532;19.078;2023-06-14T05:01:07;15.43;;;9.43;;
62123;SDS011;48110;47.532;19.078;2023-06-14T05:04:12;14.65;;;9.40;;
62123;SDS011;48110;47.532;19.078;2023-06-14T05:07:17;14.35;;;9.73;;
62123;SDS011;48110;47.532;19.078;2023-06-14T05:10:20;18.73;;;9.57;;
62123;SDS011;48110;47.532;19.078;2023-06-14T05:13:25;13.15;;;9.13;;
62123;SDS011;48110;47.532;19.078;2023-06-14T05:16:31;10.90;;;8.57;;
62123;SDS011;48110;47.532;19.078;2023-06-14T05:19:34;11.35;;;8.43;;
62123;SDS011;48110;47.532;19.078;2023-06-14T05:22:39;13.85;;;8.93;;
62123;SDS011;48110;47.532;19.078;2023-06-14T05:25:45;13.55;;;9.00;;
62123;SDS011;48110;47.532;19.078;2023-06-14T05:28:50;13.70;;;8.48;;
62123;SDS011;48110;47.532;19.078;2023-06-14T05:31:57;17.12;;;9.38;;
62123;SDS011;48110;47.532;19.078;2023-06-14T05:35:02;13.68;;;8.48;;
62123;SDS011;48110;47.532;19.078;2023-06-14T05:38:06;12.80;;;8.52;;
62123;SDS011;48110;47.532;19.078;2023-06-14T05:41:11;15.18;;;8.60;;
62123;SDS011;48110;47.532;19.078;2023-06-14T05:44:16;11.43;;;8.18;;
62123;SDS011;48110;47.532;19.078;2023-06-14T05:47:21;13.82;;;9.00;;
62123;SDS011;48110;47.532;19.078;2023-06-14T05:50:27;14.27;;;8.77;;
62123;SDS011;48110;47.532;19.078;2023-06-14T05:53:32;15.30;;;8.90;;
62123;SDS011;48110;47.532;19.078;2023-06-14T05:56:37;14.95;;;8.77;;
62123;SDS011;48110;47.532;19.078;2023-06-14T05:59:41;22.90;;;9.30;;
62123;SDS011;48110;47.532;19.078;2023-06-14T06:02:46;19.10;;;8.52;;
62123;SDS011;48110;47.532;19.078;2023-06-14T06:05:52;39.47;;;8.77;;
62123;SDS011;48110;47.532;19.078;2023-06-14T06:08:57;22.08;;;8.02;;
62123;SDS011;48110;47.532;19.078;2023-06-14T06:12:04;15.93;;;7.62;;
62123;SDS011;48110;47.532;19.078;2023-06-14T06:15:10;13.43;;;7.55;;
62123;SDS011;48110;47.532;19.078;2023-06-14T06:18:19;16.17;;;8.03;;
62123;SDS011;48110;47.532;19.078;2023-06-14T06:21:22;20.90;;;7.60;;
62123;SDS011;48110;47.532;19.078;2023-06-14T06:24:27;11.57;;;7.07;;
62123;SDS011;48110;47.532;19.078;2023-06-14T06:27:31;31.77;;;8.02;;
62123;SDS011;48110;47.532;19.078;2023-06-14T06:30:35;14.43;;;7.03;;
62123;SDS011;48110;47.532;19.078;2023-06-14T06:33:39;17.42;;;7.18;;
62123;SDS011;48110;47.532;19.078;2023-06-14T06:36:42;12.45;;;7.62;;
62123;SDS011;48110;47.532;19.078;2023-06-14T06:39:45;11.75;;;7.90;;
62123;SDS011;48110;47.532;19.078;2023-06-14T06:42:48;12.55;;;7.60;;
62123;SDS011;48110;47.532;19.078;2023-06-14T06:45:53;10.63;;;7.55;;
62123;SDS011;48110;47.532;19.078;2023-06-14T06:48:57;16.98;;;7.85;;
62123;SDS011;48110;47.532;19.078;2023-06-14T06:52:02;13.98;;;7.45;;
62123;SDS011;48110;47.532;19.078;2023-06-14T06:55:09;12.20;;;7.53;;
62123;SDS011;48110;47.532;19.078;2023-06-14T06:58:14;12.45;;;7.30;;
62123;SDS011;48110;47.532;19.078;2023-06-14T07:01:19;13.57;;;7.35;;
62123;SDS011;48110;47.532;19.078;2023-06-14T07:04:23;12.30;;;7.45;;
62123;SDS011;48110;47.532;19.078;2023-06-14T07:07:26;11.00;;;7.15;;
62123;SDS011;48110;47.532;19.078;2023-06-14T07:10:31;13.23;;;6.80;;
62123;SDS011;48110;47.532;19.078;2023-06-14T07:13:35;11.98;;;6.28;;
62123;SDS011;48110;47.532;19.078;2023-06-14T07:16:40;9.07;;;6.07;;
62123;SDS011;48110;47.532;19.078;2023-06-14T07:19:45;14.25;;;5.78;;
62123;SDS011;48110;47.532;19.078;2023-06-14T07:22:50;10.90;;;6.03;;
62123;SDS011;48110;47.532;19.078;2023-06-14T07:25:54;20.75;;;6.03;;
62123;SDS011;48110;47.532;19.078;2023-06-14T07:28:57;11.98;;;6.20;;
62123;SDS011;48110;47.532;19.078;2023-06-14T07:32:01;12.68;;;5.82;;
62123;SDS011;48110;47.532;19.078;2023-06-14T07:35:06;11.00;;;6.15;;
62123;SDS011;48110;47.532;19.078;2023-06-14T07:38:11;9.60;;;5.62;;
62123;SDS011;48110;47.532;19.078;2023-06-14T07:41:15;14.65;;;5.70;;
62123;SDS011;48110;47.532;19.078;2023-06-14T07:44:20;9.27;;;5.00;;
62123;SDS011;48110;47.532;19.078;2023-06-14T07:47:24;8.15;;;5.05;;
62123;SDS011;48110;47.532;19.078;2023-06-14T07:50:29;8.32;;;5.20;;
62123;SDS011;48110;47.532;19.078;2023-06-14T07:53:34;9.38;;;5.22;;
62123;SDS011;48110;47.532;19.078;2023-06-14T07:56:38;17.77;;;5.22;;
62123;SDS011;48110;47.532;19.078;2023-06-14T07:59:44;10.95;;;5.10;;
62123;SDS011;48110;47.532;19.078;2023-06-14T08:02:48;8.38;;;4.53;;
62123;SDS011;48110;47.532;19.078;2023-06-14T08:05:52;14.55;;;4.80;;
62123;SDS011;48110;47.532;19.078;2023-06-14T08:08:55;12.95;;;5.05;;
62123;SDS011;48110;47.532;19.078;2023-06-14T08:11:59;12.60;;;4.90;;
62123;SDS011;48110;47.532;19.078;2023-06-14T08:15:06;7.25;;;4.62;;
62123;SDS011;48110;47.532;19.078;2023-06-14T08:18:17;11.05;;;5.47;;
62123;SDS011;48110;47.532;19.078;2023-06-14T08:21:20;12.82;;;5.00;;
62123;SDS011;48110;47.532;19.078;2023-06-14T08:24:26;13.88;;;5.00;;
62123;SDS011;48110;47.532;19.078;2023-06-14T08:27:30;8.88;;;5.07;;
62123;SDS011;48110;47.532;19.078;2023-06-14T08:30:34;10.07;;;4.80;;
62123;SDS011;48110;47.532;19.078;2023-06-14T08:33:39;8.45;;;4.60;;
62123;SDS011;48110;47.532;19.078;2023-06-14T08:36:46;7.20;;;4.55;;
62123;SDS011;48110;47.532;19.078;2023-06-14T08:39:49;17.52;;;5.45;;
62123;SDS011;48110;47.532;19.078;2023-06-14T08:42:55;14.35;;;4.80;;
62123;SDS011;48110;47.532;19.078;2023-06-14T08:46:03;18.25;;;4.60;;
62123;SDS011;48110;47.532;19.078;2023-06-14T08:49:12;14.05;;;5.43;;
62123;SDS011;48110;47.532;19.078;2023-06-14T08:52:16;16.50;;;4.68;;
62123;SDS011;48110;47.532;19.078;2023-06-14T08:55:24;9.13;;;4.47;;
62123;SDS011;48110;47.532;19.078;2023-06-14T08:58:31;15.02;;;4.97;;
62123;SDS011;48110;47.532;19.078;2023-06-14T09:01:36;13.35;;;5.03;;
62123;SDS011;48110;47.532;19.078;2023-06-14T09:04:40;12.90;;;4.60;;
62123;SDS011;48110;47.532;19.078;2023-06-14T09:07:43;8.82;;;4.50;;
62123;SDS011;48110;47.532;19.078;2023-06-14T09:10:47;8.35;;;4.05;;
62123;SDS011;48110;47.532;19.078;2023-06-14T09:13:51;49.13;;;6.07;;
62123;SDS011;48110;47.532;19.078;2023-06-14T09:16:55;14.57;;;5.18;;
62123;SDS011;48110;47.532;19.078;2023-06-14T09:19:59;6.03;;;4.22;;
62123;SDS011;48110;47.532;19.078;2023-06-14T09:23:04;16.60;;;4.70;;
62123;SDS011;48110;47.532;19.078;2023-06-14T09:26:16;13.55;;;4.40;;
62123;SDS011;48110;47.532;19.078;2023-06-14T09:29:23;9.93;;;4.75;;
62123;SDS011;48110;47.532;19.078;2023-06-14T09:32:29;7.57;;;4.60;;
62123;SDS011;48110;47.532;19.078;2023-06-14T09:35:35;9.38;;;4.55;;
62123;SDS011;48110;47.532;19.078;2023-06-14T09:38:40;5.85;;;3.70;;
62123;SDS011;48110;47.532;19.078;2023-06-14T09:41:44;12.18;;;4.40;;
62123;SDS011;48110;47.532;19.078;2023-06-14T09:44:48;13.00;;;4.28;;
62123;SDS011;48110;47.532;19.078;2023-06-14T09:47:52;13.88;;;3.97;;
62123;SDS011;48110;47.532;19.078;2023-06-14T09:51:00;11.88;;;3.72;;
62123;SDS011;48110;47.532;19.078;2023-06-14T09:54:05;8.68;;;3.90;;
62123;SDS011;48110;47.532;19.078;2023-06-14T10:00:49;7.00;;;3.50;;
62123;SDS011;48110;47.532;19.078;2023-06-14T10:04:05;8.77;;;3.08;;
62123;SDS011;48110;47.532;19.078;2023-06-14T10:07:19;6.95;;;2.83;;
62123;SDS011;48110;47.532;19.078;2023-06-14T10:10:23;4.75;;;2.37;;
62123;SDS011;48110;47.532;19.078;2023-06-14T10:13:26;5.85;;;2.40;;
62123;SDS011;48110;47.532;19.078;2023-06-14T10:16:39;8.75;;;2.80;;
62123;SDS011;48110;47.532;19.078;2023-06-14T10:19:56;4.12;;;2.17;;
62123;SDS011;48110;47.532;19.078;2023-06-14T10:23:13;7.62;;;2.75;;
62123;SDS011;48110;47.532;19.078;2023-06-14T10:26:23;4.90;;;2.75;;
62123;SDS011;48110;47.532;19.078;2023-06-14T10:29:29;10.20;;;2.75;;
62123;SDS011;48110;47.532;19.078;2023-06-14T10:32:35;3.95;;;2.80;;
62123;SDS011;48110;47.532;19.078;2023-06-14T10:36:23;4.57;;;2.42;;
62123;SDS011;48110;47.532;19.078;2023-06-14T10:39:31;6.35;;;2.47;;
62123;SDS011;48110;47.532;19.078;2023-06-14T10:42:41;3.65;;;2.25;;
62123;SDS011;48110;47.532;19.078;2023-06-14T10:49:17;2.95;;;2.42;;
62123;SDS011;48110;47.532;19.078;2023-06-14T10:52:43;7.43;;;2.87;;
62123;SDS011;48110;47.532;19.078;2023-06-14T10:55:49;3.60;;;2.45;;
62123;SDS011;48110;47.532;19.078;2023-06-14T10:58:55;8.85;;;2.65;;
62123;SDS011;48110;47.532;19.078;2023-06-14T11:02:18;4.37;;;2.87;;
62123;SDS011;48110;47.532;19.078;2023-06-14T11:05:52;7.62;;;2.92;;
62123;SDS011;48110;47.532;19.078;2023-06-14T11:12:01;5.00;;;2.92;;
62123;SDS011;48110;47.532;19.078;2023-06-14T11:15:06;8.75;;;3.10;;
62123;SDS011;48110;47.532;19.078;2023-06-14T11:18:10;3.60;;;2.33;;
62123;SDS011;48110;47.532;19.078;2023-06-14T11:21:16;9.65;;;3.12;;
62123;SDS011;48110;47.532;19.078;2023-06-14T11:24:20;4.62;;;2.37;;
62123;SDS011;48110;47.532;19.078;2023-06-14T11:27:26;6.85;;;2.47;;
62123;SDS011;48110;47.532;19.078;2023-06-14T11:30:31;4.93;;;2.33;;
62123;SDS011;48110;47.532;19.078;2023-06-14T11:33:34;5.65;;;2.50;;
62123;SDS011;48110;47.532;19.078;2023-06-14T11:36:39;5.50;;;2.80;;
62123;SDS011;48110;47.532;19.078;2023-06-14T11:39:43;6.50;;;2.58;;
62123;SDS011;48110;47.532;19.078;2023-06-14T11:42:48;12.73;;;2.53;;
62123;SDS011;48110;47.532;19.078;2023-06-14T11:45:52;6.07;;;2.50;;
62123;SDS011;48110;47.532;19.078;2023-06-14T11:49:09;6.43;;;2.60;;
62123;SDS011;48110;47.532;19.078;2023-06-14T11:52:13;8.50;;;2.47;;
62123;SDS011;48110;47.532;19.078;2023-06-14T11:55:17;4.87;;;2.62;;
62123;SDS011;48110;47.532;19.078;2023-06-14T11:58:21;7.35;;;2.70;;
62123;SDS011;48110;47.532;19.078;2023-06-14T12:01:24;6.82;;;2.75;;
62123;SDS011;48110;47.532;19.078;2023-06-14T12:04:29;9.57;;;3.08;;
62123;SDS011;48110;47.532;19.078;2023-06-14T12:07:33;8.35;;;2.87;;
62123;SDS011;48110;47.532;19.078;2023-06-14T12:10:39;5.55;;;2.55;;
62123;SDS011;48110;47.532;19.078;2023-06-14T12:13:46;8.27;;;2.90;;
62123;SDS011;48110;47.532;19.078;2023-06-14T12:16:52;9.18;;;2.95;;
62123;SDS011;48110;47.532;19.078;2023-06-14T12:20:12;8.15;;;3.10;;
62123;SDS011;48110;47.532;19.078;2023-06-14T12:23:27;4.22;;;2.83;;
62123;SDS011;48110;47.532;19.078;2023-06-14T12:26:41;7.85;;;3.12;;
62123;SDS011;48110;47.532;19.078;2023-06-14T12:29:45;4.85;;;2.87;;
62123;SDS011;48110;47.532;19.078;2023-06-14T12:32:49;7.28;;;2.80;;
62123;SDS011;48110;47.532;19.078;2023-06-14T12:35:55;5.28;;;2.42;;
62123;SDS011;48110;47.532;19.078;2023-06-14T12:39:00;8.75;;;2.67;;
62123;SDS011;48110;47.532;19.078;2023-06-14T12:42:03;5.45;;;2.40;;
62123;SDS011;48110;47.532;19.078;2023-06-14T12:45:07;8.43;;;2.58;;
62123;SDS011;48110;47.532;19.078;2023-06-14T12:48:12;10.27;;;2.90;;
62123;SDS011;48110;47.532;19.078;2023-06-14T12:51:15;6.15;;;2.55;;
62123;SDS011;48110;47.532;19.078;2023-06-14T12:54:20;4.95;;;2.50;;
62123;SDS011;48110;47.532;19.078;2023-06-14T12:57:43;5.45;;;2.50;;
62123;SDS011;48110;47.532;19.078;2023-06-14T13:00:47;4.85;;;2.40;;
62123;SDS011;48110;47.532;19.078;2023-06-14T13:03:51;7.82;;;2.35;;
62123;SDS011;48110;47.532;19.078;2023-06-14T13:06:58;7.60;;;2.30;;
62123;SDS011;48110;47.532;19.078;2023-06-14T13:10:02;7.90;;;2.65;;
62123;SDS011;48110;47.532;19.078;2023-06-14T13:13:07;7.35;;;2.62;;
62123;SDS011;48110;47.532;19.078;2023-06-14T13:16:11;4.37;;;2.30;;
62123;SDS011;48110;47.532;19.078;2023-06-14T13:19:17;6.10;;;2.83;;
62123;SDS011;48110;47.532;19.078;2023-06-14T13:22:21;5.35;;;2.45;;
62123;SDS011;48110;47.532;19.078;2023-06-14T13:25:25;5.12;;;2.58;;
62123;SDS011;48110;47.532;19.078;2023-06-14T13:28:29;5.80;;;2.62;;
62123;SDS011;48110;47.532;19.078;2023-06-14T13:31:35;4.50;;;2.50;;
62123;SDS011;48110;47.532;19.078;2023-06-14T13:34:38;6.18;;;2.60;;
62123;SDS011;48110;47.532;19.078;2023-06-14T13:37:41;8.50;;;2.62;;
62123;SDS011;48110;47.532;19.078;2023-06-14T13:40:46;5.62;;;2.67;;
62123;SDS011;48110;47.532;19.078;2023-06-14T13:43:51;3.72;;;2.40;;
62123;SDS011;48110;47.532;19.078;2023-06-14T13:46:54;3.42;;;2.30;;
62123;SDS011;48110;47.532;19.078;2023-06-14T13:50:00;3.40;;;2.10;;
62123;SDS011;48110;47.532;19.078;2023-06-14T13:53:03;7.30;;;2.50;;
62123;SDS011;48110;47.532;19.078;2023-06-14T13:56:08;5.62;;;2.30;;
62123;SDS011;48110;47.532;19.078;2023-06-14T13:59:12;2.87;;;2.15;;
62123;SDS011;48110;47.532;19.078;2023-06-14T14:02:17;7.87;;;2.62;;
62123;SDS011;48110;47.532;19.078;2023-06-14T14:05:23;29.77;;;3.30;;
62123;SDS011;48110;47.532;19.078;2023-06-14T14:08:31;6.55;;;2.40;;
62123;SDS011;48110;47.532;19.078;2023-06-14T14:11:35;4.70;;;2.40;;
62123;SDS011;48110;47.532;19.078;2023-06-14T14:14:38;5.45;;;2.30;;
62123;SDS011;48110;47.532;19.078;2023-06-14T14:17:46;3.42;;;2.15;;
62123;SDS011;48110;47.532;19.078;2023-06-14T14:20:50;6.37;;;2.40;;
62123;SDS011;48110;47.532;19.078;2023-06-14T14:23:56;14.27;;;2.65;;
62123;SDS011;48110;47.532;19.078;2023-06-14T14:27:02;16.15;;;3.00;;
62123;SDS011;48110;47.532;19.078;2023-06-14T14:30:08;13.27;;;3.05;;
62123;SDS011;48110;47.532;19.078;2023-06-14T14:33:14;9.85;;;2.80;;
62123;SDS011;48110;47.532;19.078;2023-06-14T14:36:20;6.03;;;2.40;;
62123;SDS011;48110;47.532;19.078;2023-06-14T14:39:24;6.47;;;2.50;;
62123;SDS011;48110;47.532;19.078;2023-06-14T14:42:29;23.75;;;2.80;;
62123;SDS011;48110;47.532;19.078;2023-06-14T14:45:35;7.65;;;2.37;;
62123;SDS011;48110;47.532;19.078;2023-06-14T14:48:43;7.93;;;2.33;;
62123;SDS011;48110;47.532;19.078;2023-06-14T14:51:48;4.40;;;2.25;;
62123;SDS011;48110;47.532;19.078;2023-06-14T14:54:53;5.35;;;2.33;;
62123;SDS011;48110;47.532;19.078;2023-06-14T14:57:58;3.67;;;2.20;;
62123;SDS011;48110;47.532;19.078;2023-06-14T15:01:03;3.55;;;2.33;;
62123;SDS011;48110;47.532;19.078;2023-06-14T15:04:08;4.10;;;2.37;;
62123;SDS011;48110;47.532;19.078;2023-06-14T15:07:14;4.87;;;2.25;;
62123;SDS011;48110;47.532;19.078;2023-06-14T15:10:18;4.90;;;2.40;;
62123;SDS011;48110;47.532;19.078;2023-06-14T15:13:25;4.18;;;2.40;;
62123;SDS011;48110;47.532;19.078;2023-06-14T15:16:29;4.57;;;2.60;;
62123;SDS011;48110;47.532;19.078;2023-06-14T15:19:36;19.08;;;3.20;;
62123;SDS011;48110;47.532;19.078;2023-06-14T15:22:41;5.37;;;2.85;;
62123;SDS011;48110;47.532;19.078;2023-06-14T15:25:47;4.05;;;2.53;;
62123;SDS011;48110;47.532;19.078;2023-06-14T15:28:51;14.23;;;2.62;;
62123;SDS011;48110;47.532;19.078;2023-06-14T15:31:56;4.55;;;2.53;;
62123;SDS011;48110;47.532;19.078;2023-06-14T15:35:02;8.50;;;2.47;;
62123;SDS011;48110;47.532;19.078;2023-06-14T15:38:06;5.45;;;2.12;;
62123;SDS011;48110;47.532;19.078;2023-06-14T15:41:12;11.73;;;2.40;;
62123;SDS011;48110;47.532;19.078;2023-06-14T15:44:19;8.77;;;2.58;;
62123;SDS011;48110;47.532;19.078;2023-06-14T15:47:25;5.45;;;2.72;;
62123;SDS011;48110;47.532;19.078;2023-06-14T15:50:31;12.32;;;2.90;;
62123;SDS011;48110;47.532;19.078;2023-06-14T15:53:36;4.62;;;2.50;;
62123;SDS011;48110;47.532;19.078;2023-06-14T15:56:42;7.15;;;2.30;;
62123;SDS011;48110;47.532;19.078;2023-06-14T15:59:47;4.82;;;2.20;;
62123;SDS011;48110;47.532;19.078;2023-06-14T16:02:53;4.30;;;2.45;;
62123;SDS011;48110;47.532;19.078;2023-06-14T16:06:00;6.95;;;2.53;;
62123;SDS011;48110;47.532;19.078;2023-06-14T16:09:06;6.07;;;2.37;;
62123;SDS011;48110;47.532;19.078;2023-06-14T16:12:12;6.80;;;2.35;;
62123;SDS011;48110;47.532;19.078;2023-06-14T16:15:18;4.62;;;2.60;;
62123;SDS011;48110;47.532;19.078;2023-06-14T16:18:24;5.10;;;2.37;;
62123;SDS011;48110;47.532;19.078;2023-06-14T16:21:32;11.25;;;2.47;;
62123;SDS011;48110;47.532;19.078;2023-06-14T16:24:44;7.15;;;2.40;;
62123;SDS011;48110;47.532;19.078;2023-06-14T16:27:52;7.30;;;2.47;;
62123;SDS011;48110;47.532;19.078;2023-06-14T16:31:01;10.00;;;2.40;;
62123;SDS011;48110;47.532;19.078;2023-06-14T16:34:05;9.30;;;2.90;;
62123;SDS011;48110;47.532;19.078;2023-06-14T16:37:16;6.85;;;2.42;;
62123;SDS011;48110;47.532;19.078;2023-06-14T16:40:21;7.72;;;2.47;;
62123;SDS011;48110;47.532;19.078;2023-06-14T16:43:27;7.40;;;2.35;;
62123;SDS011;48110;47.532;19.078;2023-06-14T16:46:34;4.53;;;2.37;;
62123;SDS011;48110;47.532;19.078;2023-06-14T16:49:42;5.18;;;2.35;;
62123;SDS011;48110;47.532;19.078;2023-06-14T16:52:50;5.37;;;2.70;;
62123;SDS011;48110;47.532;19.078;2023-06-14T16:55:56;5.95;;;2.50;;
62123;SDS011;48110;47.532;19.078;2023-06-14T16:59:03;13.20;;;2.70;;
62123;SDS011;48110;47.532;19.078;2023-06-14T17:02:09;4.28;;;2.28;;
62123;SDS011;48110;47.532;19.078;2023-06-14T17:05:14;4.37;;;2.47;;
62123;SDS011;48110;47.532;19.078;2023-06-14T17:08:23;6.32;;;2.33;;
62123;SDS011;48110;47.532;19.078;2023-06-14T17:11:29;8.20;;;2.62;;
62123;SDS011;48110;47.532;19.078;2023-06-14T17:14:35;4.43;;;2.47;;
62123;SDS011;48110;47.532;19.078;2023-06-14T17:17:41;9.18;;;2.55;;
62123;SDS011;48110;47.532;19.078;2023-06-14T17:20:48;4.28;;;2.40;;
62123;SDS011;48110;47.532;19.078;2023-06-14T17:23:55;5.62;;;2.53;;
62123;SDS011;48110;47.532;19.078;2023-06-14T17:27:05;6.00;;;2.35;;
62123;SDS011;48110;47.532;19.078;2023-06-14T17:30:11;8.73;;;2.92;;
62123;SDS011;48110;47.532;19.078;2023-06-14T17:33:19;4.85;;;2.50;;
62123;SDS011;48110;47.532;19.078;2023-06-14T17:36:25;5.90;;;2.60;;
62123;SDS011;48110;47.532;19.078;2023-06-14T17:39:31;5.95;;;2.30;;
62123;SDS011;48110;47.532;19.078;2023-06-14T17:42:39;8.57;;;3.00;;
62123;SDS011;48110;47.532;19.078;2023-06-14T17:45:45;4.90;;;2.35;;
62123;SDS011;48110;47.532;19.078;2023-06-14T17:48:52;4.93;;;2.60;;
62123;SDS011;48110;47.532;19.078;2023-06-14T17:52:00;5.72;;;2.67;;
62123;SDS011;48110;47.532;19.078;2023-06-14T17:55:06;6.75;;;2.85;;
62123;SDS011;48110;47.532;19.078;2023-06-14T17:58:12;7.72;;;2.60;;
62123;SDS011;48110;47.532;19.078;2023-06-14T18:01:18;6.07;;;2.67;;
62123;SDS011;48110;47.532;19.078;2023-06-14T18:04:25;7.85;;;2.87;;
62123;SDS011;48110;47.532;19.078;2023-06-14T18:07:32;6.85;;;2.90;;
62123;SDS011;48110;47.532;19.078;2023-06-14T18:10:41;25.67;;;3.50;;
62123;SDS011;48110;47.532;19.078;2023-06-14T18:13:47;11.82;;;3.20;;
62123;SDS011;48110;47.532;19.078;2023-06-14T18:16:54;5.47;;;2.30;;
62123;SDS011;48110;47.532;19.078;2023-06-14T18:19:59;6.78;;;2.78;;
62123;SDS011;48110;47.532;19.078;2023-06-14T18:23:05;7.60;;;2.60;;
62123;SDS011;48110;47.532;19.078;2023-06-14T18:26:16;4.20;;;2.60;;
62123;SDS011;48110;47.532;19.078;2023-06-14T18:29:23;4.20;;;2.70;;
62123;SDS011;48110;47.532;19.078;2023-06-14T18:32:29;6.07;;;2.78;;
62123;SDS011;48110;47.532;19.078;2023-06-14T18:35:39;3.83;;;2.70;;